sensor_id;sensor_type;location;lat;lon;timestamp;P1;durP1;ratioP1;P2;durP2;ratioP2
45039;SDS011;30778;53.574;7.770;2023-02-23T00:01:15;44.33;;;18.10;;
45039;SDS011;30778;53.574;7.770;2023-02-23T00:03:43;45.03;;;19.60;;
45039;SDS011;30778;53.574;7.770;2023-02-23T00:06:10;52.22;;;20.55;;
45039;SDS011;30778;53.574;7.770;2023-02-23T00:08:36;40.70;;;18.08;;
45039;SDS011;30778;53.574;7.770;2023-02-23T00:11:03;43.08;;;20.15;;
45039;SDS011;30778;53.574;7.770;2023-02-23T00:13:33;44.63;;;19.02;;
45039;SDS011;30778;53.574;7.770;2023-02-23T00:16:14;48.90;;;18.52;;
45039;SDS011;30778;53.574;7.770;2023-02-23T00:18:43;41.40;;;18.75;;
45039;SDS011;30778;53.574;7.770;2023-02-23T00:21:25;49.80;;;19.33;;
45039;SDS011;30778;53.574;7.770;2023-02-23T00:24:11;49.00;;;20.00;;
45039;SDS011;30778;53.574;7.770;2023-02-23T00:26:40;56.35;;;20.05;;
45039;SDS011;30778;53.574;7.770;2023-02-23T00:29:07;49.88;;;20.30;;
45039;SDS011;30778;53.574;7.770;2023-02-23T00:31:37;56.40;;;20.83;;
45039;SDS011;30778;53.574;7.770;2023-02-23T00:34:03;54.75;;;20.20;;
45039;SDS011;30778;53.574;7.770;2023-02-23T00:36:30;57.53;;;21.77;;
45039;SDS011;30778;53.574;7.770;2023-02-23T00:38:58;56.33;;;20.75;;
45039;SDS011;30778;53.574;7.770;2023-02-23T00:41:40;55.20;;;21.83;;
45039;SDS011;30778;53.574;7.770;2023-02-23T00:44:06;54.38;;;20.92;;
45039;SDS011;30778;53.574;7.770;2023-02-23T00:46:32;64.60;;;20.80;;
45039;SDS011;30778;53.574;7.770;2023-02-23T00:48:57;60.72;;;20.65;;
45039;SDS011;30778;53.574;7.770;2023-02-23T00:51:24;67.50;;;22.30;;
45039;SDS011;30778;53.574;7.770;2023-02-23T00:53:54;62.40;;;21.80;;
45039;SDS011;30778;53.574;7.770;2023-02-23T00:56:21;64.35;;;22.02;;
45039;SDS011;30778;53.574;7.770;2023-02-23T00:58:47;70.82;;;21.88;;
45039;SDS011;30778;53.574;7.770;2023-02-23T01:01:14;58.50;;;21.20;;
45039;SDS011;30778;53.574;7.770;2023-02-23T01:03:41;67.82;;;21.25;;
45039;SDS011;30778;53.574;7.770;2023-02-23T01:06:09;63.05;;;20.40;;
45039;SDS011;30778;53.574;7.770;2023-02-23T01:08:38;66.35;;;21.83;;
45039;SDS011;30778;53.574;7.770;2023-02-23T01:11:06;71.32;;;23.88;;
45039;SDS011;30778;53.574;7.770;2023-02-23T01:13:40;61.08;;;22.60;;
45039;SDS011;30778;53.574;7.770;2023-02-23T01:16:10;69.57;;;22.77;;
45039;SDS011;30778;53.574;7.770;2023-02-23T01:18:39;66.80;;;21.90;;
45039;SDS011;30778;53.574;7.770;2023-02-23T01:21:15;63.22;;;22.75;;
45039;SDS011;30778;53.574;7.770;2023-02-23T01:23:43;69.80;;;23.15;;
45039;SDS011;30778;53.574;7.770;2023-02-23T01:26:16;69.07;;;24.05;;
45039;SDS011;30778;53.574;7.770;2023-02-23T01:28:46;74.03;;;23.98;;
45039;SDS011;30778;53.574;7.770;2023-02-23T01:31:13;64.95;;;21.33;;
45039;SDS011;30778;53.574;7.770;2023-02-23T01:33:39;68.72;;;23.20;;
45039;SDS011;30778;53.574;7.770;2023-02-23T01:36:05;70.10;;;22.05;;
45039;SDS011;30778;53.574;7.770;2023-02-23T01:38:31;65.18;;;21.88;;
45039;SDS011;30778;53.574;7.770;2023-02-23T01:40:57;71.72;;;23.25;;
45039;SDS011;30778;53.574;7.770;2023-02-23T01:43:23;64.82;;;22.02;;
45039;SDS011;30778;53.574;7.770;2023-02-23T01:45:52;73.78;;;25.38;;
45039;SDS011;30778;53.574;7.770;2023-02-23T01:48:22;69.60;;;24.83;;
45039;SDS011;30778;53.574;7.770;2023-02-23T01:50:58;70.60;;;24.73;;
45039;SDS011;30778;53.574;7.770;2023-02-23T01:53:29;70.57;;;24.17;;
45039;SDS011;30778;53.574;7.770;2023-02-23T01:56:00;71.55;;;25.27;;
45039;SDS011;30778;53.574;7.770;2023-02-23T01:58:30;57.28;;;21.95;;
45039;SDS011;30778;53.574;7.770;2023-02-23T02:00:58;64.30;;;24.08;;
45039;SDS011;30778;53.574;7.770;2023-02-23T02:03:30;61.03;;;24.40;;
45039;SDS011;30778;53.574;7.770;2023-02-23T02:05:59;65.07;;;24.13;;
45039;SDS011;30778;53.574;7.770;2023-02-23T02:08:27;72.18;;;25.10;;
45039;SDS011;30778;53.574;7.770;2023-02-23T02:10:55;71.20;;;24.05;;
45039;SDS011;30778;53.574;7.770;2023-02-23T02:13:26;65.63;;;23.20;;
45039;SDS011;30778;53.574;7.770;2023-02-23T02:41:49;62.83;;;24.35;;
45039;SDS011;30778;53.574;7.770;2023-02-23T02:47:16;63.97;;;22.77;;
45039;SDS011;30778;53.574;7.770;2023-02-23T02:52:38;67.65;;;25.52;;
45039;SDS011;30778;53.574;7.770;2023-02-23T02:55:16;66.93;;;23.92;;
45039;SDS011;30778;53.574;7.770;2023-02-23T02:57:49;63.33;;;23.38;;
45039;SDS011;30778;53.574;7.770;2023-02-23T03:00:19;68.40;;;25.33;;
45039;SDS011;30778;53.574;7.770;2023-02-23T03:06:42;66.20;;;24.30;;
45039;SDS011;30778;53.574;7.770;2023-02-23T03:10:01;57.90;;;23.33;;
45039;SDS011;30778;53.574;7.770;2023-02-23T03:19:13;74.95;;;26.05;;
45039;SDS011;30778;53.574;7.770;2023-02-23T03:22:15;70.90;;;25.17;;
45039;SDS011;30778;53.574;7.770;2023-02-23T03:25:15;72.47;;;24.88;;
45039;SDS011;30778;53.574;7.770;2023-02-23T03:36:36;68.78;;;25.80;;
45039;SDS011;30778;53.574;7.770;2023-02-23T03:42:36;75.60;;;26.40;;
45039;SDS011;30778;53.574;7.770;2023-02-23T03:45:23;79.25;;;24.60;;
45039;SDS011;30778;53.574;7.770;2023-02-23T03:48:11;80.85;;;27.88;;
45039;SDS011;30778;53.574;7.770;2023-02-23T03:50:59;68.80;;;23.33;;
45039;SDS011;30778;53.574;7.770;2023-02-23T03:53:47;64.32;;;22.88;;
45039;SDS011;30778;53.574;7.770;2023-02-23T03:56:40;80.13;;;27.08;;
45039;SDS011;30778;53.574;7.770;2023-02-23T03:59:29;76.57;;;26.73;;
45039;SDS011;30778;53.574;7.770;2023-02-23T04:02:22;63.67;;;27.10;;
45039;SDS011;30778;53.574;7.770;2023-02-23T04:05:12;67.20;;;26.00;;
45039;SDS011;30778;53.574;7.770;2023-02-23T04:08:01;65.78;;;24.25;;
45039;SDS011;30778;53.574;7.770;2023-02-23T04:10:49;72.28;;;24.98;;
45039;SDS011;30778;53.574;7.770;2023-02-23T04:13:41;73.20;;;26.48;;
45039;SDS011;30778;53.574;7.770;2023-02-23T04:18:39;67.05;;;23.60;;
45039;SDS011;30778;53.574;7.770;2023-02-23T04:21:05;72.00;;;22.58;;
45039;SDS011;30778;53.574;7.770;2023-02-23T04:23:31;69.80;;;24.45;;
45039;SDS011;30778;53.574;7.770;2023-02-23T04:25:57;69.32;;;25.13;;
45039;SDS011;30778;53.574;7.770;2023-02-23T04:28:23;69.13;;;25.25;;
45039;SDS011;30778;53.574;7.770;2023-02-23T04:30:51;68.15;;;25.58;;
45039;SDS011;30778;53.574;7.770;2023-02-23T04:33:17;69.40;;;26.25;;
45039;SDS011;30778;53.574;7.770;2023-02-23T04:35:43;72.85;;;25.35;;
45039;SDS011;30778;53.574;7.770;2023-02-23T04:38:09;70.03;;;24.77;;
45039;SDS011;30778;53.574;7.770;2023-02-23T04:40:34;75.32;;;25.27;;
45039;SDS011;30778;53.574;7.770;2023-02-23T04:43:00;70.72;;;24.30;;
45039;SDS011;30778;53.574;7.770;2023-02-23T04:45:27;69.32;;;25.58;;
45039;SDS011;30778;53.574;7.770;2023-02-23T04:47:52;58.17;;;23.73;;
45039;SDS011;30778;53.574;7.770;2023-02-23T04:50:18;71.60;;;24.35;;
45039;SDS011;30778;53.574;7.770;2023-02-23T04:52:44;60.65;;;23.33;;
45039;SDS011;30778;53.574;7.770;2023-02-23T04:55:17;67.40;;;26.15;;
45039;SDS011;30778;53.574;7.770;2023-02-23T04:57:45;66.65;;;24.35;;
45039;SDS011;30778;53.574;7.770;2023-02-23T05:00:12;70.30;;;25.08;;
45039;SDS011;30778;53.574;7.770;2023-02-23T05:02:38;60.72;;;22.73;;
45039;SDS011;30778;53.574;7.770;2023-02-23T05:05:04;79.28;;;27.80;;
45039;SDS011;30778;53.574;7.770;2023-02-23T05:07:32;70.63;;;25.70;;
45039;SDS011;30778;53.574;7.770;2023-02-23T05:09:58;72.55;;;25.55;;
45039;SDS011;30778;53.574;7.770;2023-02-23T05:12:23;77.93;;;26.08;;
45039;SDS011;30778;53.574;7.770;2023-02-23T05:14:49;66.22;;;25.52;;
45039;SDS011;30778;53.574;7.770;2023-02-23T05:17:15;67.85;;;26.10;;
45039;SDS011;30778;53.574;7.770;2023-02-23T05:19:41;75.75;;;27.88;;
45039;SDS011;30778;53.574;7.770;2023-02-23T05:22:07;69.45;;;24.25;;
45039;SDS011;30778;53.574;7.770;2023-02-23T05:24:37;79.30;;;27.25;;
45039;SDS011;30778;53.574;7.770;2023-02-23T05:27:10;69.18;;;25.30;;
45039;SDS011;30778;53.574;7.770;2023-02-23T05:29:38;75.60;;;27.58;;
45039;SDS011;30778;53.574;7.770;2023-02-23T05:32:04;62.25;;;23.73;;
45039;SDS011;30778;53.574;7.770;2023-02-23T05:34:30;67.05;;;27.15;;
45039;SDS011;30778;53.574;7.770;2023-02-23T05:36:55;66.47;;;25.08;;
45039;SDS011;30778;53.574;7.770;2023-02-23T05:39:21;86.05;;;25.80;;
45039;SDS011;30778;53.574;7.770;2023-02-23T05:41:47;66.35;;;25.63;;
45039;SDS011;30778;53.574;7.770;2023-02-23T05:44:12;72.45;;;25.27;;
45039;SDS011;30778;53.574;7.770;2023-02-23T05:46:38;70.28;;;25.45;;
45039;SDS011;30778;53.574;7.770;2023-02-23T05:49:04;70.78;;;25.63;;
45039;SDS011;30778;53.574;7.770;2023-02-23T05:51:31;67.30;;;25.20;;
45039;SDS011;30778;53.574;7.770;2023-02-23T05:53:58;74.60;;;24.48;;
45039;SDS011;30778;53.574;7.770;2023-02-23T05:56:24;71.10;;;26.63;;
45039;SDS011;30778;53.574;7.770;2023-02-23T05:58:50;73.93;;;26.08;;
45039;SDS011;30778;53.574;7.770;2023-02-23T06:01:22;61.60;;;25.13;;
45039;SDS011;30778;53.574;7.770;2023-02-23T06:03:49;68.57;;;27.13;;
45039;SDS011;30778;53.574;7.770;2023-02-23T06:06:15;82.13;;;24.77;;
45039;SDS011;30778;53.574;7.770;2023-02-23T06:08:42;79.50;;;28.63;;
45039;SDS011;30778;53.574;7.770;2023-02-23T06:11:08;82.28;;;25.85;;
45039;SDS011;30778;53.574;7.770;2023-02-23T06:13:34;79.00;;;26.52;;
45039;SDS011;30778;53.574;7.770;2023-02-23T06:16:00;76.07;;;26.42;;
45039;SDS011;30778;53.574;7.770;2023-02-23T06:18:26;70.28;;;24.77;;
45039;SDS011;30778;53.574;7.770;2023-02-23T06:20:52;68.13;;;24.98;;
45039;SDS011;30778;53.574;7.770;2023-02-23T06:23:17;72.18;;;26.30;;
45039;SDS011;30778;53.574;7.770;2023-02-23T06:25:43;75.18;;;26.73;;
45039;SDS011;30778;53.574;7.770;2023-02-23T06:28:10;72.60;;;27.50;;
45039;SDS011;30778;53.574;7.770;2023-02-23T06:30:37;82.53;;;25.70;;
45039;SDS011;30778;53.574;7.770;2023-02-23T06:33:03;72.10;;;26.55;;
45039;SDS011;30778;53.574;7.770;2023-02-23T06:35:31;79.88;;;27.75;;
45039;SDS011;30778;53.574;7.770;2023-02-23T06:37:58;79.43;;;27.65;;
45039;SDS011;30778;53.574;7.770;2023-02-23T06:40:25;73.35;;;24.63;;
45039;SDS011;30778;53.574;7.770;2023-02-23T06:42:52;81.07;;;27.95;;
45039;SDS011;30778;53.574;7.770;2023-02-23T06:45:17;80.45;;;26.92;;
45039;SDS011;30778;53.574;7.770;2023-02-23T06:47:44;76.75;;;27.08;;
45039;SDS011;30778;53.574;7.770;2023-02-23T06:50:10;73.30;;;26.55;;
45039;SDS011;30778;53.574;7.770;2023-02-23T06:52:36;76.10;;;26.08;;
45039;SDS011;30778;53.574;7.770;2023-02-23T06:55:02;72.28;;;24.40;;
45039;SDS011;30778;53.574;7.770;2023-02-23T06:57:28;80.45;;;26.73;;
45039;SDS011;30778;53.574;7.770;2023-02-23T06:59:54;84.03;;;26.33;;
45039;SDS011;30778;53.574;7.770;2023-02-23T07:02:19;81.40;;;25.95;;
45039;SDS011;30778;53.574;7.770;2023-02-23T07:04:45;77.65;;;27.08;;
45039;SDS011;30778;53.574;7.770;2023-02-23T07:07:11;89.80;;;27.23;;
45039;SDS011;30778;53.574;7.770;2023-02-23T07:09:40;84.43;;;26.90;;
45039;SDS011;30778;53.574;7.770;2023-02-23T07:12:07;81.93;;;25.75;;
45039;SDS011;30778;53.574;7.770;2023-02-23T07:14:34;84.50;;;26.23;;
45039;SDS011;30778;53.574;7.770;2023-02-23T07:17:00;81.05;;;27.30;;
45039;SDS011;30778;53.574;7.770;2023-02-23T07:19:26;87.20;;;26.33;;
45039;SDS011;30778;53.574;7.770;2023-02-23T07:21:51;96.05;;;29.17;;
45039;SDS011;30778;53.574;7.770;2023-02-23T07:24:18;84.80;;;27.42;;
45039;SDS011;30778;53.574;7.770;2023-02-23T07:26:43;94.03;;;27.77;;
45039;SDS011;30778;53.574;7.770;2023-02-23T07:29:11;74.28;;;26.63;;
45039;SDS011;30778;53.574;7.770;2023-02-23T07:31:38;85.00;;;28.23;;
45039;SDS011;30778;53.574;7.770;2023-02-23T07:34:04;93.50;;;28.42;;
45039;SDS011;30778;53.574;7.770;2023-02-23T07:36:30;85.13;;;26.63;;
45039;SDS011;30778;53.574;7.770;2023-02-23T07:38:55;92.32;;;28.45;;
45039;SDS011;30778;53.574;7.770;2023-02-23T07:41:21;94.68;;;28.17;;
45039;SDS011;30778;53.574;7.770;2023-02-23T07:43:48;105.95;;;28.55;;
45039;SDS011;30778;53.574;7.770;2023-02-23T07:46:13;93.38;;;28.65;;
45039;SDS011;30778;53.574;7.770;2023-02-23T07:48:41;87.60;;;25.35;;
45039;SDS011;30778;53.574;7.770;2023-02-23T07:51:12;96.65;;;28.13;;
45039;SDS011;30778;53.574;7.770;2023-02-23T07:53:41;101.05;;;30.05;;
45039;SDS011;30778;53.574;7.770;2023-02-23T07:56:07;99.43;;;28.58;;
45039;SDS011;30778;53.574;7.770;2023-02-23T07:58:38;88.95;;;27.08;;
45039;SDS011;30778;53.574;7.770;2023-02-23T08:01:05;92.22;;;28.33;;
45039;SDS011;30778;53.574;7.770;2023-02-23T08:03:31;90.70;;;29.02;;
45039;SDS011;30778;53.574;7.770;2023-02-23T08:05:57;103.68;;;28.75;;
45039;SDS011;30778;53.574;7.770;2023-02-23T08:08:22;92.88;;;29.75;;
45039;SDS011;30778;53.574;7.770;2023-02-23T08:10:48;93.25;;;29.50;;
45039;SDS011;30778;53.574;7.770;2023-02-23T08:13:14;92.95;;;28.92;;
45039;SDS011;30778;53.574;7.770;2023-02-23T08:15:40;102.85;;;28.65;;
45039;SDS011;30778;53.574;7.770;2023-02-23T08:18:06;99.78;;;29.27;;
45039;SDS011;30778;53.574;7.770;2023-02-23T08:20:32;90.47;;;29.50;;
45039;SDS011;30778;53.574;7.770;2023-02-23T08:22:58;92.68;;;28.70;;
45039;SDS011;30778;53.574;7.770;2023-02-23T08:25:24;95.80;;;27.30;;
45039;SDS011;30778;53.574;7.770;2023-02-23T08:27:51;90.32;;;30.77;;
45039;SDS011;30778;53.574;7.770;2023-02-23T08:30:19;94.45;;;30.40;;
45039;SDS011;30778;53.574;7.770;2023-02-23T08:32:45;86.65;;;28.00;;
45039;SDS011;30778;53.574;7.770;2023-02-23T08:35:11;97.88;;;28.58;;
45039;SDS011;30778;53.574;7.770;2023-02-23T08:37:37;94.15;;;27.20;;
45039;SDS011;30778;53.574;7.770;2023-02-23T08:40:03;88.53;;;30.23;;
45039;SDS011;30778;53.574;7.770;2023-02-23T08:42:29;87.10;;;26.25;;
45039;SDS011;30778;53.574;7.770;2023-02-23T08:44:54;84.35;;;28.55;;
45039;SDS011;30778;53.574;7.770;2023-02-23T08:47:20;93.50;;;27.48;;
45039;SDS011;30778;53.574;7.770;2023-02-23T08:49:50;86.28;;;27.23;;
45039;SDS011;30778;53.574;7.770;2023-02-23T08:52:18;85.85;;;25.35;;
45039;SDS011;30778;53.574;7.770;2023-02-23T08:54:44;88.78;;;26.77;;
45039;SDS011;30778;53.574;7.770;2023-02-23T08:57:10;80.57;;;25.75;;
45039;SDS011;30778;53.574;7.770;2023-02-23T08:59:35;89.47;;;24.63;;
45039;SDS011;30778;53.574;7.770;2023-02-23T09:02:03;79.10;;;28.45;;
45039;SDS011;30778;53.574;7.770;2023-02-23T09:04:31;71.10;;;22.63;;
45039;SDS011;30778;53.574;7.770;2023-02-23T09:06:59;73.90;;;25.50;;
45039;SDS011;30778;53.574;7.770;2023-02-23T09:09:25;83.10;;;23.60;;
45039;SDS011;30778;53.574;7.770;2023-02-23T09:11:51;70.65;;;23.35;;
45039;SDS011;30778;53.574;7.770;2023-02-23T09:14:17;75.40;;;22.17;;
45039;SDS011;30778;53.574;7.770;2023-02-23T09:16:43;78.85;;;27.38;;
45039;SDS011;30778;53.574;7.770;2023-02-23T09:19:09;68.20;;;22.60;;
45039;SDS011;30778;53.574;7.770;2023-02-23T09:21:34;73.03;;;22.08;;
45039;SDS011;30778;53.574;7.770;2023-02-23T09:24:00;81.70;;;25.25;;
45039;SDS011;30778;53.574;7.770;2023-02-23T09:26:26;68.32;;;21.55;;
45039;SDS011;30778;53.574;7.770;2023-02-23T09:28:53;69.57;;;22.35;;
45039;SDS011;30778;53.574;7.770;2023-02-23T09:31:21;73.65;;;20.05;;
45039;SDS011;30778;53.574;7.770;2023-02-23T09:33:47;66.78;;;20.90;;
45039;SDS011;30778;53.574;7.770;2023-02-23T09:36:15;71.28;;;22.45;;
45039;SDS011;30778;53.574;7.770;2023-02-23T09:38:43;71.50;;;22.08;;
45039;SDS011;30778;53.574;7.770;2023-02-23T09:41:42;68.20;;;21.25;;
45039;SDS011;30778;53.574;7.770;2023-02-23T09:44:25;56.22;;;18.05;;
45039;SDS011;30778;53.574;7.770;2023-02-23T09:49:51;53.47;;;17.38;;
45039;SDS011;30778;53.574;7.770;2023-02-23T09:52:24;55.97;;;17.00;;
45039;SDS011;30778;53.574;7.770;2023-02-23T09:54:54;51.05;;;16.13;;
45039;SDS011;30778;53.574;7.770;2023-02-23T09:57:24;54.33;;;17.52;;
45039;SDS011;30778;53.574;7.770;2023-02-23T10:00:18;57.20;;;17.88;;
45039;SDS011;30778;53.574;7.770;2023-02-23T10:05:25;51.35;;;17.08;;
45039;SDS011;30778;53.574;7.770;2023-02-23T10:08:01;60.97;;;18.73;;
45039;SDS011;30778;53.574;7.770;2023-02-23T10:10:47;59.63;;;18.20;;
45039;SDS011;30778;53.574;7.770;2023-02-23T10:13:20;55.05;;;17.35;;
45039;SDS011;30778;53.574;7.770;2023-02-23T10:15:59;59.95;;;17.58;;
45039;SDS011;30778;53.574;7.770;2023-02-23T10:18:57;51.13;;;17.15;;
45039;SDS011;30778;53.574;7.770;2023-02-23T10:21:35;56.63;;;17.60;;
45039;SDS011;30778;53.574;7.770;2023-02-23T10:24:52;58.30;;;16.67;;
45039;SDS011;30778;53.574;7.770;2023-02-23T10:27:01;50.05;;;18.33;;
45039;SDS011;30778;53.574;7.770;2023-02-23T10:29:35;51.92;;;18.15;;
45039;SDS011;30778;53.574;7.770;2023-02-23T10:34:47;48.63;;;15.43;;
45039;SDS011;30778;53.574;7.770;2023-02-23T10:37:17;51.17;;;17.38;;
45039;SDS011;30778;53.574;7.770;2023-02-23T10:39:43;51.42;;;16.88;;
45039;SDS011;30778;53.574;7.770;2023-02-23T10:42:12;46.00;;;15.55;;
45039;SDS011;30778;53.574;7.770;2023-02-23T10:44:44;47.55;;;15.57;;
45039;SDS011;30778;53.574;7.770;2023-02-23T10:47:15;48.92;;;16.05;;
45039;SDS011;30778;53.574;7.770;2023-02-23T10:49:50;49.20;;;15.93;;
45039;SDS011;30778;53.574;7.770;2023-02-23T10:52:19;55.72;;;16.58;;
45039;SDS011;30778;53.574;7.770;2023-02-23T10:54:49;50.37;;;16.43;;
45039;SDS011;30778;53.574;7.770;2023-02-23T10:57:19;54.00;;;16.23;;
45039;SDS011;30778;53.574;7.770;2023-02-23T11:02:43;47.80;;;14.93;;
45039;SDS011;30778;53.574;7.770;2023-02-23T11:08:16;49.83;;;14.23;;
45039;SDS011;30778;53.574;7.770;2023-02-23T11:11:00;49.42;;;15.70;;
45039;SDS011;30778;53.574;7.770;2023-02-23T11:13:30;45.95;;;16.27;;
45039;SDS011;30778;53.574;7.770;2023-02-23T11:16:09;50.00;;;16.30;;
45039;SDS011;30778;53.574;7.770;2023-02-23T11:18:54;55.55;;;15.93;;
45039;SDS011;30778;53.574;7.770;2023-02-23T11:23:52;54.63;;;15.60;;
45039;SDS011;30778;53.574;7.770;2023-02-23T11:26:30;48.60;;;15.57;;
45039;SDS011;30778;53.574;7.770;2023-02-23T11:29:03;52.47;;;15.90;;
45039;SDS011;30778;53.574;7.770;2023-02-23T11:31:38;52.03;;;15.85;;
45039;SDS011;30778;53.574;7.770;2023-02-23T11:34:05;49.47;;;13.43;;
45039;SDS011;30778;53.574;7.770;2023-02-23T11:36:32;54.50;;;15.90;;
45039;SDS011;30778;53.574;7.770;2023-02-23T11:39:13;46.17;;;13.63;;
45039;SDS011;30778;53.574;7.770;2023-02-23T11:41:40;54.45;;;16.02;;
45039;SDS011;30778;53.574;7.770;2023-02-23T11:44:05;47.67;;;15.48;;
45039;SDS011;30778;53.574;7.770;2023-02-23T11:46:32;48.78;;;15.98;;
45039;SDS011;30778;53.574;7.770;2023-02-23T11:49:02;49.97;;;16.63;;
45039;SDS011;30778;53.574;7.770;2023-02-23T11:51:34;47.33;;;14.82;;
45039;SDS011;30778;53.574;7.770;2023-02-23T11:54:04;49.97;;;16.15;;
45039;SDS011;30778;53.574;7.770;2023-02-23T11:56:34;49.60;;;16.08;;
45039;SDS011;30778;53.574;7.770;2023-02-23T11:59:04;48.05;;;16.10;;
45039;SDS011;30778;53.574;7.770;2023-02-23T12:01:40;42.25;;;13.90;;
45039;SDS011;30778;53.574;7.770;2023-02-23T12:04:26;44.67;;;13.60;;
45039;SDS011;30778;53.574;7.770;2023-02-23T12:06:56;40.95;;;14.32;;
45039;SDS011;30778;53.574;7.770;2023-02-23T12:15:49;43.08;;;14.07;;
45039;SDS011;30778;53.574;7.770;2023-02-23T12:21:03;45.40;;;12.30;;
45039;SDS011;30778;53.574;7.770;2023-02-23T12:23:39;33.13;;;12.55;;
45039;SDS011;30778;53.574;7.770;2023-02-23T12:26:10;32.67;;;11.13;;
45039;SDS011;30778;53.574;7.770;2023-02-23T12:28:47;34.38;;;12.07;;
45039;SDS011;30778;53.574;7.770;2023-02-23T12:34:42;38.42;;;12.38;;
45039;SDS011;30778;53.574;7.770;2023-02-23T12:39:44;42.47;;;13.50;;
45039;SDS011;30778;53.574;7.770;2023-02-23T12:44:54;46.55;;;13.50;;
45039;SDS011;30778;53.574;7.770;2023-02-23T12:47:39;42.35;;;13.43;;
45039;SDS011;30778;53.574;7.770;2023-02-23T13:04:38;46.70;;;13.10;;
45039;SDS011;30778;53.574;7.770;2023-02-23T13:07:31;45.50;;;13.23;;
45039;SDS011;30778;53.574;7.770;2023-02-23T13:24:25;37.05;;;5.03;;
45039;SDS011;30778;53.574;7.770;2023-02-23T13:27:14;37.72;;;4.45;;
45039;SDS011;30778;53.574;7.770;2023-02-23T13:29:47;34.85;;;6.45;;
45039;SDS011;30778;53.574;7.770;2023-02-23T13:32:17;34.20;;;4.30;;
45039;SDS011;30778;53.574;7.770;2023-02-23T13:34:50;31.08;;;4.18;;
45039;SDS011;30778;53.574;7.770;2023-02-23T13:37:23;35.72;;;4.40;;
45039;SDS011;30778;53.574;7.770;2023-02-23T13:45:27;37.55;;;5.15;;
45039;SDS011;30778;53.574;7.770;2023-02-23T13:48:03;21.92;;;3.72;;
45039;SDS011;30778;53.574;7.770;2023-02-23T13:56:06;32.20;;;3.97;;
45039;SDS011;30778;53.574;7.770;2023-02-23T13:58:33;31.20;;;4.32;;
45039;SDS011;30778;53.574;7.770;2023-02-23T14:01:03;22.38;;;3.70;;
45039;SDS011;30778;53.574;7.770;2023-02-23T14:03:35;27.60;;;3.53;;
45039;SDS011;30778;53.574;7.770;2023-02-23T14:06:06;25.25;;;3.25;;
45039;SDS011;30778;53.574;7.770;2023-02-23T14:08:36;19.15;;;3.70;;
45039;SDS011;30778;53.574;7.770;2023-02-23T14:11:04;38.17;;;3.55;;
45039;SDS011;30778;53.574;7.770;2023-02-23T14:13:31;26.83;;;3.33;;
45039;SDS011;30778;53.574;7.770;2023-02-23T14:19:40;23.08;;;3.97;;
45039;SDS011;30778;53.574;7.770;2023-02-23T14:21:49;33.85;;;4.10;;
45039;SDS011;30778;53.574;7.770;2023-02-23T14:24:24;26.02;;;4.32;;
45039;SDS011;30778;53.574;7.770;2023-02-23T14:29:31;25.27;;;2.20;;
45039;SDS011;30778;53.574;7.770;2023-02-23T14:39:49;20.88;;;3.80;;
45039;SDS011;30778;53.574;7.770;2023-02-23T14:42:22;34.03;;;3.83;;
45039;SDS011;30778;53.574;7.770;2023-02-23T14:47:20;28.23;;;2.97;;
45039;SDS011;30778;53.574;7.770;2023-02-23T14:49:50;20.27;;;3.05;;
45039;SDS011;30778;53.574;7.770;2023-02-23T14:52:21;23.33;;;2.92;;
45039;SDS011;30778;53.574;7.770;2023-02-23T14:54:49;23.02;;;2.75;;
45039;SDS011;30778;53.574;7.770;2023-02-23T14:57:16;19.08;;;1.60;;
45039;SDS011;30778;53.574;7.770;2023-02-23T14:59:56;15.80;;;2.75;;
45039;SDS011;30778;53.574;7.770;2023-02-23T15:02:25;18.75;;;3.15;;
45039;SDS011;30778;53.574;7.770;2023-02-23T15:04:52;19.27;;;1.77;;
45039;SDS011;30778;53.574;7.770;2023-02-23T15:09:52;19.92;;;3.17;;
45039;SDS011;30778;53.574;7.770;2023-02-23T15:12:33;17.27;;;2.33;;
45039;SDS011;30778;53.574;7.770;2023-02-23T15:15:02;8.07;;;0.80;;
45039;SDS011;30778;53.574;7.770;2023-02-23T15:17:34;27.00;;;3.13;;
45039;SDS011;30778;53.574;7.770;2023-02-23T15:20:06;21.95;;;2.88;;
45039;SDS011;30778;53.574;7.770;2023-02-23T15:22:38;22.85;;;2.08;;
45039;SDS011;30778;53.574;7.770;2023-02-23T15:25:11;12.73;;;2.22;;
45039;SDS011;30778;53.574;7.770;2023-02-23T15:27:43;11.45;;;2.28;;
45039;SDS011;30778;53.574;7.770;2023-02-23T15:31:10;24.63;;;2.17;;
45039;SDS011;30778;53.574;7.770;2023-02-23T15:33:11;16.95;;;1.73;;
45039;SDS011;30778;53.574;7.770;2023-02-23T15:35:39;17.48;;;1.85;;
45039;SDS011;30778;53.574;7.770;2023-02-23T15:38:25;16.55;;;1.83;;
45039;SDS011;30778;53.574;7.770;2023-02-23T15:40:58;17.60;;;1.63;;
45039;SDS011;30778;53.574;7.770;2023-02-23T15:43:26;20.85;;;1.92;;
45039;SDS011;30778;53.574;7.770;2023-02-23T15:45:54;33.95;;;3.30;;
45039;SDS011;30778;53.574;7.770;2023-02-23T15:48:23;18.30;;;1.40;;
45039;SDS011;30778;53.574;7.770;2023-02-23T15:50:53;21.25;;;2.05;;
45039;SDS011;30778;53.574;7.770;2023-02-23T15:53:42;4.00;;;1.05;;
45039;SDS011;30778;53.574;7.770;2023-02-23T15:56:12;9.05;;;1.05;;
45039;SDS011;30778;53.574;7.770;2023-02-23T15:58:48;13.52;;;1.30;;
45039;SDS011;30778;53.574;7.770;2023-02-23T16:01:26;13.00;;;1.73;;
45039;SDS011;30778;53.574;7.770;2023-02-23T16:06:51;16.33;;;1.67;;
45039;SDS011;30778;53.574;7.770;2023-02-23T16:11:49;12.52;;;1.70;;
45039;SDS011;30778;53.574;7.770;2023-02-23T16:14:17;23.02;;;1.52;;
45039;SDS011;30778;53.574;7.770;2023-02-23T16:16:47;13.02;;;1.30;;
45039;SDS011;30778;53.574;7.770;2023-02-23T16:19:16;14.05;;;1.48;;
45039;SDS011;30778;53.574;7.770;2023-02-23T16:21:49;11.15;;;1.70;;
45039;SDS011;30778;53.574;7.770;2023-02-23T16:24:22;16.05;;;2.00;;
45039;SDS011;30778;53.574;7.770;2023-02-23T16:27:00;8.73;;;1.55;;
45039;SDS011;30778;53.574;7.770;2023-02-23T16:29:30;12.55;;;0.60;;
45039;SDS011;30778;53.574;7.770;2023-02-23T16:32:18;10.35;;;0.90;;
45039;SDS011;30778;53.574;7.770;2023-02-23T16:34:49;10.98;;;1.00;;
45039;SDS011;30778;53.574;7.770;2023-02-23T16:39:50;25.13;;;2.17;;
45039;SDS011;30778;53.574;7.770;2023-02-23T16:44:47;10.18;;;1.13;;
45039;SDS011;30778;53.574;7.770;2023-02-23T16:49:47;6.43;;;0.50;;
45039;SDS011;30778;53.574;7.770;2023-02-23T16:52:17;10.88;;;0.95;;
45039;SDS011;30778;53.574;7.770;2023-02-23T16:54:44;14.05;;;2.13;;
45039;SDS011;30778;53.574;7.770;2023-02-23T16:57:20;7.93;;;1.40;;
45039;SDS011;30778;53.574;7.770;2023-02-23T16:59:49;11.48;;;1.23;;
45039;SDS011;30778;53.574;7.770;2023-02-23T17:02:17;8.48;;;1.20;;
45039;SDS011;30778;53.574;7.770;2023-02-23T17:04:46;13.15;;;1.58;;
45039;SDS011;30778;53.574;7.770;2023-02-23T17:07:16;15.23;;;1.17;;
45039;SDS011;30778;53.574;7.770;2023-02-23T17:09:42;14.95;;;1.75;;
45039;SDS011;30778;53.574;7.770;2023-02-23T17:12:09;8.95;;;1.90;;
45039;SDS011;30778;53.574;7.770;2023-02-23T17:14:35;10.57;;;0.95;;
45039;SDS011;30778;53.574;7.770;2023-02-23T17:17:01;14.20;;;1.25;;
45039;SDS011;30778;53.574;7.770;2023-02-23T17:19:27;9.48;;;0.80;;
45039;SDS011;30778;53.574;7.770;2023-02-23T17:21:52;7.88;;;0.63;;
45039;SDS011;30778;53.574;7.770;2023-02-23T17:24:17;4.68;;;0.68;;
45039;SDS011;30778;53.574;7.770;2023-02-23T17:26:43;5.57;;;0.85;;
45039;SDS011;30778;53.574;7.770;2023-02-23T17:29:09;12.38;;;1.00;;